createdAt,value
2022-11-29T00:00:58.425Z,31.70
2022-11-29T00:04:01.665Z,29.37
2022-11-29T00:07:03.907Z,35.55
2022-11-29T00:10:07.192Z,33.22
2022-11-29T00:13:09.982Z,30.88
2022-11-29T00:16:12.591Z,34.37
2022-11-29T00:19:14.874Z,31.80
2022-11-29T00:22:17.446Z,29.92
2022-11-29T00:25:20.357Z,32.08
2022-11-29T00:28:22.973Z,27.92
2022-11-29T00:31:30.434Z,29.90
2022-11-29T00:34:33.109Z,29.75
2022-11-29T00:37:35.446Z,28.83
2022-11-29T00:40:40.404Z,33.33
2022-11-29T00:43:42.626Z,39.08
2022-11-29T00:46:45.200Z,38.92
2022-11-29T00:49:47.466Z,37.65
2022-11-29T00:52:50.048Z,33.85
2022-11-29T00:55:53.131Z,35.45
2022-11-29T00:58:55.988Z,35.53
2022-11-29T01:01:58.249Z,33.15
2022-11-29T01:05:00.804Z,34.78
2022-11-29T01:08:03.901Z,25.77
2022-11-29T01:11:11.499Z,36.38
2022-11-29T01:14:14.415Z,27.92
2022-11-29T01:17:16.936Z,27.20
2022-11-29T01:20:19.726Z,26.00
2022-11-29T01:23:22.247Z,26.97
2022-11-29T01:26:27.682Z,24.37
2022-11-29T01:29:30.271Z,27.13
2022-11-29T01:32:32.513Z,25.55
2022-11-29T01:35:35.030Z,26.58
2022-11-29T01:38:37.685Z,26.05
2022-11-29T01:41:40.328Z,21.17
2022-11-29T01:44:46.187Z,23.10
2022-11-29T01:47:51.689Z,24.25
2022-11-29T01:50:57.369Z,23.05
2022-11-29T01:54:00.109Z,25.15
2022-11-29T01:57:05.794Z,21.98
2022-11-29T02:00:14.692Z,19.87
2022-11-29T02:03:18.219Z,19.83
2022-11-29T02:06:22.004Z,24.90
2022-11-29T02:09:24.241Z,20.52
2022-11-29T02:12:47.777Z,21.00
2022-11-29T02:16:02.767Z,26.40
2022-11-29T02:19:22.378Z,24.20
2022-11-29T02:22:40.182Z,27.13
2022-11-29T02:25:48.722Z,20.62
2022-11-29T02:29:15.685Z,20.73
2022-11-29T02:33:09.866Z,17.65
2022-11-29T02:36:18.082Z,18.35
2022-11-29T02:39:48.461Z,20.20
2022-11-29T02:43:02.472Z,23.75
2022-11-29T02:49:42.558Z,24.58
2022-11-29T02:52:53.196Z,20.67
2022-11-29T02:56:23.534Z,19.87
2022-11-29T02:59:41.133Z,21.40
2022-11-29T03:02:53.331Z,22.58
2022-11-29T03:06:12.263Z,18.65
2022-11-29T03:09:36.995Z,21.67
2022-11-29T03:12:43.782Z,17.50
2022-11-29T03:16:06.311Z,21.42
2022-11-29T03:19:26.878Z,21.10
2022-11-29T03:22:31.886Z,22.67
2022-11-29T03:25:44.026Z,24.58
2022-11-29T03:28:49.473Z,21.58
2022-11-29T03:32:00.080Z,22.35
2022-11-29T03:35:11.052Z,23.15
2022-11-29T03:38:32.246Z,19.17
2022-11-29T03:41:44.078Z,16.42
2022-11-29T03:45:02.375Z,20.92
2022-11-29T03:48:37.670Z,18.12
2022-11-29T03:51:54.648Z,19.77
2022-11-29T03:55:08.935Z,20.70
2022-11-29T03:58:26.278Z,23.05
2022-11-29T04:01:49.746Z,22.67
2022-11-29T04:05:34.503Z,22.85
2022-11-29T04:08:45.172Z,20.98
2022-11-29T04:12:22.329Z,20.85
2022-11-29T04:16:03.115Z,20.55
2022-11-29T04:19:23.123Z,22.60
2022-11-29T04:23:11.026Z,23.45
2022-11-29T04:26:58.344Z,19.48
2022-11-29T04:30:13.712Z,17.23
2022-11-29T04:33:34.585Z,21.40
2022-11-29T04:37:10.735Z,21.17
2022-11-29T04:40:16.140Z,25.30
2022-11-29T04:43:42.982Z,22.73
2022-11-29T04:47:20.058Z,23.52
2022-11-29T04:50:40.330Z,19.67
2022-11-29T04:54:06.798Z,21.23
2022-11-29T04:57:17.818Z,19.15
2022-11-29T05:00:23.847Z,25.52
2022-11-29T05:04:13.692Z,19.65
2022-11-29T05:07:33.352Z,19.67
2022-11-29T05:10:47.277Z,17.60
2022-11-29T05:14:30.252Z,16.08
2022-11-29T05:17:38.379Z,21.60
2022-11-29T05:21:00.314Z,20.98
2022-11-29T05:24:24.134Z,21.50
2022-11-29T05:27:44.329Z,19.83
2022-11-29T05:31:20.874Z,19.27
2022-11-29T05:34:42.369Z,21.60
2022-11-29T05:37:52.672Z,20.85
2022-11-29T05:41:16.573Z,22.40
2022-11-29T05:44:36.710Z,22.57
2022-11-29T05:47:46.737Z,20.15
2022-11-29T05:51:21.834Z,20.75
2022-11-29T05:54:56.738Z,18.77
2022-11-29T05:58:12.438Z,21.77
2022-11-29T06:01:21.439Z,18.33
2022-11-29T06:04:56.191Z,19.60
2022-11-29T06:08:12.314Z,19.58
2022-11-29T06:11:46.826Z,19.10
2022-11-29T06:15:06.428Z,21.20
2022-11-29T06:18:59.438Z,21.87
2022-11-29T06:22:39.896Z,22.37
2022-11-29T06:26:07.338Z,21.35
2022-11-29T06:29:29.630Z,21.55
2022-11-29T06:32:40.852Z,25.70
2022-11-29T06:35:50.537Z,25.17
2022-11-29T06:38:53.254Z,21.87
2022-11-29T06:41:55.648Z,20.02
2022-11-29T06:44:58.396Z,22.37
2022-11-29T06:48:06.388Z,22.37
2022-11-29T06:51:37.080Z,19.90
2022-11-29T06:54:42.680Z,21.27
2022-11-29T06:57:51.387Z,23.42
2022-11-29T07:01:18.040Z,21.70
2022-11-29T07:04:45.464Z,23.25
2022-11-29T07:07:48.874Z,19.58
2022-11-29T07:10:54.929Z,26.83
2022-11-29T07:13:57.459Z,37.33
2022-11-29T07:17:12.706Z,31.17
2022-11-29T07:20:46.963Z,28.50
2022-11-29T07:24:14.024Z,25.85
2022-11-29T07:27:23.969Z,22.80
2022-11-29T07:30:45.234Z,22.25
2022-11-29T07:34:26.305Z,22.33
2022-11-29T07:37:40.349Z,26.55
2022-11-29T07:40:53.137Z,22.60
2022-11-29T07:44:17.714Z,23.73
2022-11-29T07:47:19.930Z,22.17
2022-11-29T07:50:22.543Z,31.02
2022-11-29T07:53:25.045Z,27.45
2022-11-29T07:56:27.579Z,30.95
2022-11-29T07:59:29.851Z,26.35
2022-11-29T08:02:32.479Z,25.23
2022-11-29T08:05:36.577Z,23.48
2022-11-29T08:08:43.767Z,27.48
2022-11-29T08:11:46.930Z,24.40
2022-11-29T08:14:49.206Z,25.67
2022-11-29T08:17:53.149Z,24.02
2022-11-29T08:20:55.437Z,23.67
2022-11-29T08:23:58.021Z,26.73
2022-11-29T08:27:00.333Z,28.23
2022-11-29T08:30:04.221Z,28.45
2022-11-29T08:33:07.123Z,28.10
2022-11-29T08:36:11.149Z,29.42
2022-11-29T08:39:13.514Z,30.48
2022-11-29T08:42:16.170Z,33.22
2022-11-29T08:45:18.518Z,26.02
2022-11-29T08:48:21.034Z,33.25
2022-11-29T08:51:23.301Z,25.83
2022-11-29T08:54:25.831Z,26.83
2022-11-29T08:57:43.420Z,28.98
2022-11-29T09:00:49.286Z,26.58
2022-11-29T09:04:02.489Z,25.17
2022-11-29T09:07:05.096Z,25.17
2022-11-29T09:10:08.963Z,23.55
2022-11-29T09:13:12.592Z,24.27
2022-11-29T09:16:18.362Z,26.70
2022-11-29T09:19:20.990Z,25.33
2022-11-29T09:22:23.383Z,26.35
2022-11-29T09:25:26.242Z,28.52
2022-11-29T09:28:29.005Z,26.70
2022-11-29T09:31:32.753Z,24.98
2022-11-29T09:34:35.329Z,27.20
2022-11-29T09:37:41.466Z,24.27
2022-11-29T09:40:52.989Z,29.30
2022-11-29T09:44:09.035Z,25.15
2022-11-29T09:47:34.580Z,27.25
2022-11-29T09:50:44.875Z,29.10
2022-11-29T09:54:20.346Z,25.45
2022-11-29T09:57:25.166Z,49.33
2022-11-29T10:00:30.646Z,33.05
2022-11-29T10:03:39.976Z,19.75
2022-11-29T10:06:50.280Z,13.93
2022-11-29T10:10:09.297Z,11.00
2022-11-29T10:13:25.213Z,10.57
2022-11-29T10:16:42.791Z,70.32
2022-11-29T10:19:51.037Z,25.52
2022-11-29T10:23:12.099Z,25.73
2022-11-29T10:26:15.017Z,26.20
2022-11-29T10:29:17.552Z,29.17
2022-11-29T10:32:24.074Z,26.87
2022-11-29T10:35:27.429Z,28.77
2022-11-29T10:38:31.380Z,31.13
2022-11-29T10:41:35.693Z,31.08
2022-11-29T10:44:37.971Z,30.00
2022-11-29T10:47:40.879Z,34.40
2022-11-29T10:50:45.546Z,32.42
2022-11-29T10:53:49.542Z,33.78
2022-11-29T10:56:52.380Z,29.55
2022-11-29T11:00:06.983Z,28.20
2022-11-29T11:06:49.125Z,27.25
2022-11-29T11:09:55.874Z,27.35
2022-11-29T11:13:19.697Z,29.77
2022-11-29T11:16:24.569Z,33.03
2022-11-29T11:19:32.960Z,27.23
2022-11-29T11:22:39.940Z,37.97
2022-11-29T11:25:42.712Z,36.00
2022-11-29T11:28:55.478Z,39.83
2022-11-29T11:31:59.900Z,37.67
2022-11-29T11:35:02.706Z,32.40
2022-11-29T11:38:05.264Z,33.43
2022-11-29T11:41:07.623Z,32.67
2022-11-29T11:44:46.511Z,32.78
2022-11-29T11:47:52.785Z,32.55
2022-11-29T11:50:58.349Z,34.67
2022-11-29T11:54:00.598Z,33.67
2022-11-29T11:57:03.562Z,35.78
2022-11-29T12:00:07.309Z,33.17
2022-11-29T12:03:19.682Z,35.47
2022-11-29T12:06:28.713Z,34.20
2022-11-29T12:09:37.495Z,34.55
2022-11-29T12:12:43.810Z,33.30
2022-11-29T12:15:50.449Z,33.63
2022-11-29T12:18:59.543Z,33.63
2022-11-29T12:22:10.918Z,29.80
2022-11-29T12:25:20.706Z,35.95
2022-11-29T12:28:28.243Z,34.90
2022-11-29T12:31:36.888Z,35.45
2022-11-29T12:35:00.918Z,33.55
2022-11-29T12:38:25.166Z,36.50
2022-11-29T12:41:53.971Z,31.48
2022-11-29T12:45:30.596Z,32.67
2022-11-29T12:48:45.010Z,35.72
2022-11-29T12:52:30.588Z,36.58
2022-11-29T12:55:57.425Z,39.58
2022-11-29T12:59:11.774Z,45.10
2022-11-29T13:02:33.452Z,36.78
2022-11-29T13:05:57.616Z,32.53
2022-11-29T13:09:02.585Z,34.42
2022-11-29T13:12:26.622Z,34.40
2022-11-29T13:15:44.923Z,36.80
2022-11-29T13:18:57.744Z,33.72
2022-11-29T13:22:15.210Z,33.53
2022-11-29T13:25:23.850Z,32.35
2022-11-29T13:28:39.363Z,36.65
2022-11-29T13:31:43.098Z,36.97
2022-11-29T13:34:50.170Z,40.97
2022-11-29T13:38:07.949Z,39.17
2022-11-29T13:41:37.914Z,34.85
2022-11-29T13:44:52.851Z,35.28
2022-11-29T13:47:58.532Z,35.85
2022-11-29T13:51:25.411Z,37.05
2022-11-29T13:54:32.842Z,34.88
2022-11-29T14:01:15.062Z,42.10
2022-11-29T14:04:32.732Z,33.88
2022-11-29T14:07:36.030Z,34.92
2022-11-29T14:10:38.643Z,36.88
2022-11-29T14:14:02.222Z,42.25
2022-11-29T14:17:25.962Z,39.63
2022-11-29T14:20:28.681Z,35.55
2022-11-29T14:23:42.850Z,33.33
2022-11-29T14:26:45.124Z,34.10
2022-11-29T14:29:47.719Z,39.63
2022-11-29T14:32:58.370Z,35.42
2022-11-29T14:36:19.979Z,36.72
2022-11-29T14:39:27.312Z,34.25
2022-11-29T14:42:31.484Z,32.92
2022-11-29T14:45:35.171Z,37.25
2022-11-29T14:52:06.186Z,31.27
2022-11-29T14:55:14.859Z,34.78
2022-11-29T14:58:20.605Z,37.90
2022-11-29T15:01:23.760Z,36.63
2022-11-29T15:04:26.938Z,37.17
2022-11-29T15:07:31.915Z,40.45
2022-11-29T15:10:39.891Z,38.47
2022-11-29T15:13:59.126Z,42.33
2022-11-29T15:17:10.491Z,38.97
2022-11-29T15:20:12.928Z,38.38
2022-11-29T15:23:18.594Z,37.55
2022-11-29T15:26:21.743Z,39.92
2022-11-29T15:29:24.660Z,34.97
2022-11-29T15:32:31.202Z,43.63
2022-11-29T15:35:35.851Z,41.15
2022-11-29T15:38:59.171Z,38.55
2022-11-29T15:42:11.084Z,41.28
2022-11-29T15:45:32.286Z,40.75
2022-11-29T15:48:34.572Z,47.62
2022-11-29T15:51:38.623Z,41.17
2022-11-29T15:54:49.621Z,37.58
2022-11-29T15:57:55.367Z,40.20
2022-11-29T16:01:00.584Z,40.50
2022-11-29T16:04:03.614Z,38.80
2022-11-29T16:07:06.261Z,41.22
2022-11-29T16:10:16.607Z,46.08
2022-11-29T16:13:38.585Z,40.35
2022-11-29T16:16:44.106Z,40.75
2022-11-29T16:19:47.361Z,46.33
2022-11-29T16:23:13.354Z,43.53
2022-11-29T16:26:24.446Z,46.80
2022-11-29T16:29:30.322Z,43.63
2022-11-29T16:32:43.130Z,47.42
2022-11-29T16:35:45.723Z,40.83
2022-11-29T16:39:18.754Z,40.90
2022-11-29T16:42:25.742Z,40.30
2022-11-29T16:45:33.784Z,42.17
2022-11-29T16:48:38.318Z,45.10
2022-11-29T16:51:48.174Z,44.55
2022-11-29T16:54:51.461Z,38.40
2022-11-29T16:57:53.829Z,44.97
2022-11-29T17:00:56.729Z,42.42
2022-11-29T17:04:00.550Z,46.53
2022-11-29T17:10:13.407Z,44.42
2022-11-29T17:13:16.006Z,43.33
2022-11-29T17:16:21.028Z,47.97
2022-11-29T17:19:24.268Z,49.03
2022-11-29T17:22:26.605Z,52.03
2022-11-29T17:25:29.143Z,42.88
2022-11-29T17:28:31.742Z,43.42
2022-11-29T17:31:34.379Z,42.05
2022-11-29T17:34:36.691Z,47.17
2022-11-29T17:37:39.356Z,46.37
2022-11-29T17:40:41.565Z,42.92
2022-11-29T17:43:47.068Z,51.15
2022-11-29T17:46:49.357Z,49.30
2022-11-29T17:49:51.876Z,43.92
2022-11-29T17:52:54.167Z,42.45
2022-11-29T17:56:06.150Z,44.08
2022-11-29T17:59:08.528Z,48.72
2022-11-29T18:02:12.385Z,40.85
2022-11-29T18:05:15.078Z,41.33
2022-11-29T18:08:17.397Z,46.30
2022-11-29T18:11:40.317Z,47.13
2022-11-29T18:14:47.386Z,51.22
2022-11-29T18:17:49.888Z,43.80
2022-11-29T18:20:52.138Z,47.65
2022-11-29T18:23:55.184Z,46.55
2022-11-29T18:26:57.506Z,52.83
2022-11-29T18:30:00.079Z,48.67
2022-11-29T18:33:02.382Z,47.08
2022-11-29T18:36:09.835Z,48.33
2022-11-29T18:39:15.099Z,49.35
2022-11-29T18:42:17.683Z,57.33
2022-11-29T18:45:19.957Z,51.72
2022-11-29T18:48:22.505Z,48.03
2022-11-29T18:51:24.806Z,54.65
2022-11-29T18:54:29.158Z,44.22
2022-11-29T19:00:33.754Z,43.78
2022-11-29T19:03:38.848Z,45.65
2022-11-29T19:06:42.288Z,45.95
2022-11-29T19:09:44.541Z,49.30
2022-11-29T19:12:47.069Z,49.83
2022-11-29T19:15:53.675Z,50.50
2022-11-29T19:18:58.603Z,42.80
2022-11-29T19:22:01.040Z,40.88
2022-11-29T19:25:03.703Z,46.22
2022-11-29T19:28:12.576Z,49.33
2022-11-29T19:31:19.383Z,46.53
2022-11-29T19:34:21.746Z,47.78
2022-11-29T19:37:24.253Z,48.83
2022-11-29T19:40:26.875Z,43.25
2022-11-29T19:43:31.558Z,45.33
2022-11-29T19:46:37.125Z,46.53
2022-11-29T19:49:46.157Z,46.85
2022-11-29T19:52:51.150Z,42.00
2022-11-29T19:55:53.827Z,48.92
2022-11-29T19:58:56.706Z,48.55
2022-11-29T20:01:59.718Z,44.63
2022-11-29T20:05:02.582Z,47.20
2022-11-29T20:08:05.059Z,47.97
2022-11-29T20:11:26.626Z,44.95
2022-11-29T20:14:28.893Z,46.13
2022-11-29T20:17:31.606Z,50.35
2022-11-29T20:20:34.260Z,44.80
2022-11-29T20:23:40.194Z,39.30
2022-11-29T20:26:45.595Z,41.45
2022-11-29T20:29:48.637Z,38.35
2022-11-29T20:32:51.100Z,41.17
2022-11-29T20:36:06.656Z,38.17
2022-11-29T20:39:47.035Z,55.97
2022-11-29T20:43:02.945Z,41.40
2022-11-29T20:46:05.524Z,37.53
2022-11-29T20:49:08.534Z,38.28
2022-11-29T20:52:19.488Z,35.00
2022-11-29T20:55:22.154Z,35.15
2022-11-29T20:58:26.394Z,36.72
2022-11-29T21:01:28.958Z,38.83
2022-11-29T21:04:31.283Z,37.75
2022-11-29T21:07:34.293Z,38.20
2022-11-29T21:10:36.621Z,35.28
2022-11-29T21:13:41.587Z,44.78
2022-11-29T21:16:44.259Z,46.63
2022-11-29T21:19:47.129Z,37.47
2022-11-29T21:23:14.247Z,41.15
2022-11-29T21:26:23.114Z,40.40
2022-11-29T21:29:25.621Z,40.42
2022-11-29T21:32:28.361Z,42.40
2022-11-29T21:35:30.624Z,35.70
2022-11-29T21:38:33.235Z,39.50
2022-11-29T21:41:35.554Z,37.55
2022-11-29T21:44:40.272Z,39.42
2022-11-29T21:47:43.294Z,40.85
2022-11-29T21:50:50.239Z,47.50
2022-11-29T21:53:52.484Z,39.17
2022-11-29T21:56:55.764Z,34.60
2022-11-29T21:59:58.032Z,40.42
2022-11-29T22:03:02.445Z,39.45
2022-11-29T22:06:07.350Z,36.72
2022-11-29T22:09:09.690Z,40.08
2022-11-29T22:12:32.310Z,35.95
2022-11-29T22:15:34.634Z,39.90
2022-11-29T22:18:37.384Z,33.97
2022-11-29T22:21:40.626Z,40.67
2022-11-29T22:24:43.147Z,38.00
2022-11-29T22:27:45.479Z,38.17
2022-11-29T22:30:48.019Z,41.88
2022-11-29T22:33:54.044Z,36.42
2022-11-29T22:36:56.751Z,35.97
2022-11-29T22:39:58.991Z,37.38
2022-11-29T22:43:01.803Z,38.22
2022-11-29T22:46:20.358Z,38.22
2022-11-29T22:49:22.977Z,36.58
2022-11-29T22:52:25.396Z,36.38
2022-11-29T22:55:27.978Z,34.58
2022-11-29T22:58:30.371Z,37.70
2022-11-29T23:01:35.328Z,38.60
2022-11-29T23:04:37.529Z,35.88
2022-11-29T23:07:40.332Z,36.60
2022-11-29T23:10:42.581Z,35.92
2022-11-29T23:13:45.621Z,41.45
2022-11-29T23:16:47.898Z,35.28
2022-11-29T23:19:51.995Z,40.05
2022-11-29T23:22:54.197Z,37.20
2022-11-29T23:25:58.142Z,39.90
2022-11-29T23:32:03.417Z,41.58
2022-11-29T23:35:06.063Z,39.67
2022-11-29T23:38:08.839Z,35.30
2022-11-29T23:41:11.745Z,36.88
2022-11-29T23:44:14.231Z,36.07
2022-11-29T23:47:16.449Z,33.47
2022-11-29T23:50:18.968Z,40.38
2022-11-29T23:53:21.202Z,36.08
2022-11-29T23:56:23.737Z,37.35
2022-11-29T23:59:25.949Z,39.70
